Time;durP1;ratioP1;P1;durP2;ratioP2;P2;SDS_P1;SDS_P2;PMS_P1;PMS_P2;Temp;Humidity;BMP_temperature;BMP_pressure;BME280_temperature;BME280_humidity;BME280_pressure;Samples;Min_cycle;Max_cycle;Signal;HPM_P1;HPM_P2
2021/07/03 00:00:45;;;;;;;10.45;6.03;;;14.10;93.00;;;;;;5035203;28;20410;-48
2021/07/03 00:03:11;;;;;;;11.65;6.97;;;14.10;93.10;;;;;;5024508;28;20127;-49
2021/07/03 00:05:37;;;;;;;12.25;7.65;;;14.10;93.20;;;;;;4998043;28;20064;-49
2021/07/03 00:08:03;;;;;;;12.98;7.68;;;14.10;93.40;;;;;;5036566;28;20490;-49
2021/07/03 00:10:29;;;;;;;13.57;7.70;;;14.10;93.50;;;;;;5038911;28;20041;-52
2021/07/03 00:12:55;;;;;;;10.52;6.90;;;14.10;93.50;;;;;;5040032;28;20490;-52
2021/07/03 00:15:21;;;;;;;11.57;7.32;;;14.10;93.50;;;;;;5035157;28;20044;-51
2021/07/03 00:17:53;;;;;;;13.00;7.78;;;14.10;93.70;;;;;;5049067;28;20548;-53
2021/07/03 00:20:20;;;;;;;14.05;8.02;;;14.20;93.70;;;;;;4998954;28;20068;-47
2021/07/03 00:22:47;;;;;;;14.73;8.27;;;14.20;93.70;;;;;;5044419;28;20050;-48
2021/07/03 00:25:13;;;;;;;12.85;8.27;;;14.10;93.80;;;;;;5033367;28;20041;-50
2021/07/03 00:27:40;;;;;;;14.27;8.68;;;14.10;93.90;;;;;;5043135;28;20410;-49
2021/07/03 00:30:09;;;;;;;13.48;8.10;;;14.10;94.00;;;;;;5034032;28;20124;-51
2021/07/03 00:32:36;;;;;;;17.65;8.50;;;14.00;94.00;;;;;;5036704;28;20071;-51
2021/07/03 00:35:03;;;;;;;16.45;8.35;;;14.00;94.10;;;;;;5043689;28;20073;-48
2021/07/03 00:37:30;;;;;;;11.55;7.38;;;14.00;94.00;;;;;;5057303;28;20128;-53
2021/07/03 00:39:55;;;;;;;16.85;8.25;;;14.00;94.00;;;;;;5027022;28;20140;-49
2021/07/03 00:42:21;;;;;;;11.82;8.18;;;14.00;94.00;;;;;;5036567;28;20076;-52
2021/07/03 00:44:48;;;;;;;16.00;9.48;;;14.00;94.10;;;;;;5030942;28;20084;-51
2021/07/03 00:47:14;;;;;;;16.60;10.15;;;14.00;94.10;;;;;;5016728;28;20137;-52
2021/07/03 00:49:40;;;;;;;14.55;9.55;;;14.00;94.30;;;;;;5016748;28;20054;-53
2021/07/03 00:52:08;;;;;;;15.43;9.57;;;14.10;94.00;;;;;;5034002;28;20045;-52
2021/07/03 00:54:39;;;;;;;15.25;9.23;;;14.00;94.00;;;;;;5034193;28;20041;-51
2021/07/03 00:57:08;;;;;;;14.88;8.88;;;14.00;94.20;;;;;;5035928;28;20183;-47
2021/07/03 00:59:37;;;;;;;15.85;9.52;;;13.90;94.20;;;;;;5032068;28;20052;-50
2021/07/03 01:02:05;;;;;;;15.98;9.73;;;13.90;94.30;;;;;;5019446;28;20533;-50
2021/07/03 01:04:31;;;;;;;15.32;9.48;;;13.90;94.50;;;;;;5034119;28;20060;-50
2021/07/03 01:06:58;;;;;;;13.77;8.80;;;13.80;94.50;;;;;;5022886;28;20100;-51
2021/07/03 01:09:24;;;;;;;10.05;6.20;;;13.80;94.60;;;;;;5012881;28;20080;-52
2021/07/03 01:11:50;;;;;;;9.70;6.32;;;13.80;94.30;;;;;;5017569;28;20069;-53
2021/07/03 01:14:17;;;;;;;8.60;6.13;;;13.80;94.10;;;;;;5029116;28;20057;-53
2021/07/03 01:16:44;;;;;;;11.50;7.97;;;13.70;93.80;;;;;;5016570;28;20603;-49
2021/07/03 01:19:10;;;;;;;17.63;9.98;;;13.70;93.90;;;;;;5030614;28;20049;-51
2021/07/03 01:21:36;;;;;;;16.88;10.63;;;13.70;94.20;;;;;;5037873;28;20448;-51
2021/07/03 01:24:03;;;;;;;17.42;10.57;;;13.80;94.70;;;;;;5053302;28;20052;-52
2021/07/03 01:26:50;;;;;;;11.38;8.10;;;13.80;94.70;;;;;;5037396;28;20040;-50
2021/07/03 01:29:18;;;;;;;12.98;9.55;;;13.80;94.70;;;;;;5048345;28;20046;-49
2021/07/03 01:31:46;;;;;;;19.13;11.00;;;13.70;94.50;;;;;;5042066;28;20037;-48
2021/07/03 01:34:18;;;;;;;15.52;10.30;;;13.80;94.60;;;;;;5027322;28;20045;-48
2021/07/03 01:36:44;;;;;;;19.88;11.27;;;13.80;94.70;;;;;;5028753;28;20041;-50
2021/07/03 01:39:11;;;;;;;12.95;9.05;;;13.70;94.70;;;;;;5032986;28;20049;-48
2021/07/03 01:41:39;;;;;;;11.90;8.15;;;13.80;94.80;;;;;;5031366;28;20045;-47
2021/07/03 01:44:05;;;;;;;10.60;6.85;;;13.70;94.70;;;;;;5035735;28;20140;-47
2021/07/03 01:46:36;;;;;;;11.57;7.25;;;13.70;94.50;;;;;;5032658;28;20486;-49
2021/07/03 01:49:06;;;;;;;12.82;8.93;;;13.60;94.40;;;;;;5013566;28;20128;-50
2021/07/03 01:51:32;;;;;;;16.23;10.10;;;13.60;94.50;;;;;;5030839;28;20029;-49
2021/07/03 01:53:59;;;;;;;19.63;10.45;;;13.60;94.70;;;;;;5031916;28;20045;-49
2021/07/03 01:56:24;;;;;;;15.43;10.13;;;13.70;94.90;;;;;;5033202;28;20033;-49
2021/07/03 01:58:50;;;;;;;17.63;10.55;;;13.60;94.90;;;;;;5032549;28;20547;-51
2021/07/03 02:01:16;;;;;;;16.48;11.20;;;13.70;95.00;;;;;;5015840;28;20045;-51
2021/07/03 02:03:42;;;;;;;18.33;11.30;;;13.70;95.00;;;;;;5031559;28;20049;-51
2021/07/03 02:06:08;;;;;;;17.90;11.38;;;13.60;95.00;;;;;;5030232;28;20483;-49
2021/07/03 02:08:34;;;;;;;19.10;10.27;;;13.60;95.20;;;;;;5038408;28;20038;-48
2021/07/03 02:11:01;;;;;;;18.65;10.88;;;13.60;95.10;;;;;;5023278;28;20048;-50
2021/07/03 02:13:28;;;;;;;25.80;12.25;;;13.60;95.20;;;;;;5038338;28;20416;-52
2021/07/03 02:15:54;;;;;;;12.20;8.02;;;13.60;95.30;;;;;;5023188;28;20052;-47
2021/07/03 02:18:21;;;;;;;7.90;6.13;;;13.60;95.20;;;;;;5017116;28;20065;-50
2021/07/03 02:20:48;;;;;;;8.80;6.18;;;13.60;94.50;;;;;;5019244;28;20121;-47
2021/07/03 02:23:15;;;;;;;9.73;6.03;;;13.50;94.20;;;;;;5012289;28;20107;-47
2021/07/03 02:25:41;;;;;;;10.63;7.75;;;13.40;94.20;;;;;;5031377;28;20037;-47
2021/07/03 02:28:07;;;;;;;19.45;11.57;;;13.30;94.20;;;;;;5031980;28;20037;-51
2021/07/03 02:30:33;;;;;;;19.27;11.30;;;13.40;95.00;;;;;;5029920;28;20487;-52
2021/07/03 02:33:03;;;;;;;20.33;11.75;;;13.50;95.20;;;;;;5024713;28;20624;-50
2021/07/03 02:35:31;;;;;;;22.88;12.98;;;13.50;95.10;;;;;;4978326;28;20478;-53
2021/07/03 02:37:57;;;;;;;19.23;12.43;;;13.50;95.40;;;;;;5010168;28;20053;-49
2021/07/03 02:40:23;;;;;;;20.92;13.13;;;13.50;95.30;;;;;;5023841;28;20053;-51
2021/07/03 02:42:49;;;;;;;23.48;12.60;;;13.50;95.40;;;;;;5013295;28;20084;-50
2021/07/03 02:45:16;;;;;;;19.77;12.90;;;13.50;95.50;;;;;;5013600;28;20055;-50
2021/07/03 02:47:43;;;;;;;23.48;14.13;;;13.60;95.60;;;;;;5027589;28;20037;-47
2021/07/03 02:50:12;;;;;;;22.27;14.43;;;13.70;95.60;;;;;;5038129;28;20048;-48
2021/07/03 02:52:37;;;;;;;23.20;14.27;;;13.80;95.50;;;;;;5037225;28;20589;-49
2021/07/03 02:55:04;;;;;;;21.63;13.57;;;13.80;95.30;;;;;;5051559;28;20068;-48
2021/07/03 02:57:30;;;;;;;20.15;13.93;;;13.80;95.40;;;;;;5043912;28;20124;-52
2021/07/03 02:59:56;;;;;;;20.17;12.75;;;13.90;95.20;;;;;;5028809;28;20121;-49
2021/07/03 03:02:21;;;;;;;19.75;13.02;;;13.90;95.10;;;;;;5023342;28;20422;-48
2021/07/03 03:04:48;;;;;;;22.08;14.00;;;14.00;95.10;;;;;;5017570;28;20045;-49
2021/07/03 03:07:14;;;;;;;20.08;13.10;;;14.00;95.00;;;;;;5031125;28;20041;-48
2021/07/03 03:09:40;;;;;;;21.63;13.88;;;13.90;94.90;;;;;;5030626;28;20060;-48
2021/07/03 03:12:06;;;;;;;20.27;14.32;;;13.80;95.00;;;;;;5020756;28;20044;-49
2021/07/03 03:14:33;;;;;;;22.80;14.32;;;13.80;95.20;;;;;;5030945;28;20041;-46
2021/07/03 03:17:00;;;;;;;22.52;12.88;;;13.80;95.30;;;;;;4995977;28;20441;-49
2021/07/03 03:19:26;;;;;;;16.92;10.82;;;13.70;95.30;;;;;;5027722;28;20033;-49
2021/07/03 03:21:52;;;;;;;12.90;10.10;;;13.70;95.20;;;;;;5011277;28;20580;-50
2021/07/03 03:24:18;;;;;;;13.88;10.25;;;13.60;94.80;;;;;;5041301;28;20034;-49
2021/07/03 03:26:44;;;;;;;13.73;9.73;;;13.50;94.70;;;;;;5027774;28;20048;-50
2021/07/03 03:29:10;;;;;;;13.40;9.65;;;13.50;94.70;;;;;;5043519;28;20551;-48
2021/07/03 03:31:36;;;;;;;13.20;9.68;;;13.40;94.80;;;;;;5024720;28;20296;-49
2021/07/03 03:34:02;;;;;;;12.90;8.88;;;13.40;94.80;;;;;;5055620;28;20046;-52
2021/07/03 03:36:28;;;;;;;16.35;11.13;;;13.30;94.80;;;;;;5022839;28;20037;-49
2021/07/03 03:38:53;;;;;;;16.35;11.88;;;13.30;95.00;;;;;;5030511;28;20034;-49
2021/07/03 03:41:23;;;;;;;17.58;11.27;;;13.30;95.10;;;;;;5019654;28;20501;-48
2021/07/03 03:43:48;;;;;;;18.55;12.32;;;13.30;95.10;;;;;;5020806;28;20106;-48
2021/07/03 03:46:14;;;;;;;16.30;11.27;;;13.30;95.20;;;;;;5037502;28;20360;-48
2021/07/03 03:48:40;;;;;;;15.02;11.25;;;13.40;95.30;;;;;;4987759;28;20038;-48
2021/07/03 03:51:06;;;;;;;15.95;11.65;;;13.30;95.30;;;;;;5056901;28;20483;-49
2021/07/03 03:53:32;;;;;;;16.35;12.27;;;13.40;95.30;;;;;;5019087;28;20410;-51
2021/07/03 03:55:57;;;;;;;16.25;11.23;;;13.40;95.40;;;;;;5031454;28;20430;-47
2021/07/03 03:58:23;;;;;;;18.25;13.05;;;13.40;95.40;;;;;;5034085;28;20034;-50
2021/07/03 04:00:54;;;;;;;16.48;12.02;;;13.40;95.50;;;;;;5035989;28;20045;-50
2021/07/03 04:03:19;;;;;;;17.98;11.55;;;13.40;95.50;;;;;;5036040;28;20038;-48
2021/07/03 04:05:45;;;;;;;19.63;12.65;;;13.40;95.50;;;;;;5034598;28;20103;-50
2021/07/03 04:08:11;;;;;;;14.48;10.93;;;13.40;95.50;;;;;;5037291;28;20130;-47
2021/07/03 04:10:37;;;;;;;13.45;10.80;;;13.40;95.60;;;;;;5038258;28;20424;-50
2021/07/03 04:13:03;;;;;;;15.90;10.88;;;13.40;95.60;;;;;;5033520;28;20042;-50
2021/07/03 04:15:29;;;;;;;18.58;11.48;;;13.50;95.70;;;;;;5027948;28;20044;-47
2021/07/03 04:17:55;;;;;;;23.45;13.88;;;13.50;95.70;;;;;;5029960;28;20467;-47
2021/07/03 04:20:21;;;;;;;20.88;13.48;;;13.60;95.70;;;;;;5015668;28;20049;-47
2021/07/03 04:22:48;;;;;;;25.73;14.93;;;13.60;95.80;;;;;;5026086;28;20418;-48
2021/07/03 04:25:19;;;;;;;24.08;14.30;;;13.60;95.90;;;;;;5020684;28;20065;-51
2021/07/03 04:27:46;;;;;;;20.08;13.10;;;13.70;95.90;;;;;;4997126;28;20049;-47
2021/07/03 04:30:13;;;;;;;22.40;14.55;;;13.70;95.90;;;;;;5016806;28;20046;-50
2021/07/03 04:32:39;;;;;;;25.13;15.45;;;13.80;95.90;;;;;;5013848;28;20048;-52
2021/07/03 04:35:06;;;;;;;24.15;15.88;;;13.80;95.90;;;;;;5018335;28;20037;-51
2021/07/03 04:37:33;;;;;;;21.33;14.88;;;13.80;95.80;;;;;;5024267;28;20411;-51
2021/07/03 04:40:02;;;;;;;22.90;14.50;;;13.90;95.90;;;;;;5043162;28;20068;-52
2021/07/03 04:42:29;;;;;;;23.77;15.45;;;14.00;95.90;;;;;;5020790;28;20050;-52
2021/07/03 04:44:55;;;;;;;26.05;14.98;;;14.00;95.90;;;;;;5032120;28;20619;-49
2021/07/03 04:47:23;;;;;;;19.20;13.52;;;14.10;95.80;;;;;;5023759;28;20397;-50
2021/07/03 04:49:48;;;;;;;24.92;14.68;;;14.20;95.60;;;;;;5025634;28;20483;-49
2021/07/03 04:52:15;;;;;;;27.13;15.05;;;14.30;95.50;;;;;;5016698;28;20736;-50
2021/07/03 04:54:42;;;;;;;21.02;13.73;;;14.30;95.40;;;;;;4983622;28;20049;-48
2021/07/03 04:57:08;;;;;;;22.88;14.25;;;14.30;95.30;;;;;;5015132;28;20050;-49
2021/07/03 04:59:38;;;;;;;24.15;15.52;;;14.40;95.40;;;;;;5026980;28;20457;-52
2021/07/03 05:02:09;;;;;;;23.50;15.18;;;14.40;95.50;;;;;;5020725;28;20505;-52
2021/07/03 05:04:36;;;;;;;17.58;13.63;;;14.50;95.60;;;;;;5029535;28;20100;-49
2021/07/03 05:07:03;;;;;;;17.85;12.45;;;14.60;95.60;;;;;;5029027;28;20033;-52
2021/07/03 05:09:29;;;;;;;18.98;12.73;;;14.70;95.50;;;;;;5020449;28;20045;-50
2021/07/03 05:11:56;;;;;;;22.98;12.88;;;14.90;95.30;;;;;;5026089;28;20219;-50
2021/07/03 05:14:22;;;;;;;23.45;12.15;;;15.20;95.10;;;;;;5026248;28;20037;-48
2021/07/03 05:16:48;;;;;;;17.08;12.05;;;15.40;94.60;;;;;;5027835;28;20053;-50
2021/07/03 05:19:14;;;;;;;18.98;12.73;;;15.60;93.90;;;;;;5026621;28;20111;-48
2021/07/03 05:21:40;;;;;;;17.95;12.32;;;15.80;93.30;;;;;;5032335;28;20037;-50
2021/07/03 05:24:06;;;;;;;18.33;12.52;;;15.90;93.60;;;;;;5026951;28;20029;-51
2021/07/03 05:26:35;;;;;;;15.65;12.07;;;16.10;93.10;;;;;;5026738;28;20041;-50
2021/07/03 05:29:05;;;;;;;20.75;12.23;;;16.20;92.70;;;;;;5025677;28;20048;-50
2021/07/03 05:31:32;;;;;;;23.08;11.93;;;16.30;92.70;;;;;;5025488;28;20168;-50
2021/07/03 05:33:58;;;;;;;20.83;13.30;;;16.40;92.50;;;;;;5026993;28;20517;-48
2021/07/03 05:36:24;;;;;;;21.33;13.50;;;16.50;92.00;;;;;;5021964;28;20061;-52
2021/07/03 05:38:50;;;;;;;19.60;12.60;;;16.70;92.10;;;;;;5033119;28;20044;-52
2021/07/03 05:41:18;;;;;;;19.77;12.50;;;16.80;91.80;;;;;;5000568;28;20135;-47
2021/07/03 05:43:45;;;;;;;17.80;12.45;;;17.00;91.70;;;;;;5032805;28;20060;-49
2021/07/03 05:46:12;;;;;;;16.35;12.18;;;17.10;91.00;;;;;;5032294;28;20041;-50
2021/07/03 05:48:40;;;;;;;23.95;12.93;;;17.20;90.80;;;;;;5032896;28;20079;-49
2021/07/03 05:51:06;;;;;;;19.80;13.30;;;17.30;90.60;;;;;;5027293;28;20041;-47
2021/07/03 05:53:32;;;;;;;16.23;12.55;;;17.30;90.60;;;;;;5019533;28;20422;-47
2021/07/03 05:55:58;;;;;;;20.73;13.38;;;17.30;90.00;;;;;;5028705;28;20076;-47
2021/07/03 05:58:24;;;;;;;18.23;13.00;;;17.20;90.00;;;;;;5034005;28;20029;-49
2021/07/03 06:00:51;;;;;;;23.08;13.18;;;17.10;90.30;;;;;;5015932;28;20514;-49
2021/07/03 06:03:16;;;;;;;18.95;13.43;;;17.10;90.50;;;;;;5032733;28;20052;-48
2021/07/03 06:05:42;;;;;;;20.70;13.45;;;17.00;90.30;;;;;;5024557;28;20050;-48
2021/07/03 06:08:08;;;;;;;23.67;14.35;;;16.90;90.50;;;;;;5009304;28;20117;-47
2021/07/03 06:10:35;;;;;;;23.75;14.98;;;16.80;91.00;;;;;;5050550;28;20048;-48
2021/07/03 06:13:01;;;;;;;22.13;14.55;;;16.70;91.30;;;;;;5039341;28;20041;-48
2021/07/03 06:15:27;;;;;;;20.42;15.05;;;16.70;91.10;;;;;;5024900;28;20044;-49
2021/07/03 06:17:53;;;;;;;20.55;14.20;;;16.60;91.30;;;;;;5022702;28;20038;-47
2021/07/03 06:20:19;;;;;;;24.60;15.30;;;16.50;91.60;;;;;;5009239;28;20049;-50
2021/07/03 06:22:45;;;;;;;20.67;14.50;;;16.60;91.20;;;;;;5019433;28;20060;-48
2021/07/03 06:25:14;;;;;;;19.20;15.48;;;16.50;91.60;;;;;;5018215;28;20129;-49
2021/07/03 06:27:41;;;;;;;22.00;14.82;;;16.50;91.80;;;;;;5013873;28;20096;-50
2021/07/03 06:30:09;;;;;;;22.00;13.98;;;16.50;91.90;;;;;;4985696;28;20048;-50
2021/07/03 06:32:35;;;;;;;24.50;14.88;;;16.60;92.00;;;;;;5011218;28;20038;-50
2021/07/03 06:35:00;;;;;;;16.52;13.75;;;16.60;91.90;;;;;;5016155;28;20103;-50
2021/07/03 06:37:26;;;;;;;22.98;15.25;;;16.60;91.70;;;;;;5018264;28;20044;-51
2021/07/03 06:39:52;;;;;;;23.63;14.25;;;16.60;91.50;;;;;;5030189;28;20041;-47
2021/07/03 06:42:27;;;;;;;21.83;15.55;;;16.60;91.50;;;;;;5032443;28;20143;-49
2021/07/03 06:44:55;;;;;;;21.63;16.17;;;16.50;91.70;;;;;;5020372;28;20041;-49
2021/07/03 06:47:21;;;;;;;24.38;16.17;;;16.50;91.70;;;;;;5031750;28;20052;-49
2021/07/03 06:49:47;;;;;;;23.17;15.93;;;16.50;91.70;;;;;;5012332;28;20045;-52
2021/07/03 06:52:12;;;;;;;21.42;15.45;;;16.50;91.80;;;;;;5030925;28;20045;-49
2021/07/03 06:54:40;;;;;;;21.45;15.05;;;16.50;91.60;;;;;;5029409;28;20077;-49
2021/07/03 06:57:09;;;;;;;22.75;14.63;;;16.60;91.40;;;;;;5013477;28;20056;-50
2021/07/03 06:59:36;;;;;;;23.08;15.85;;;16.50;91.70;;;;;;5030283;28;20049;-48
2021/07/03 07:02:02;;;;;;;22.52;15.95;;;16.60;91.90;;;;;;5021658;28;20100;-52
2021/07/03 07:04:28;;;;;;;21.58;15.57;;;16.60;92.20;;;;;;5043771;28;20037;-49
2021/07/03 07:06:56;;;;;;;22.58;15.65;;;16.60;92.30;;;;;;5030317;28;20041;-50
2021/07/03 07:09:25;;;;;;;25.73;16.23;;;16.70;92.00;;;;;;5031071;28;20550;-47
2021/07/03 07:11:52;;;;;;;20.30;15.60;;;16.80;92.00;;;;;;5025870;28;20156;-48
2021/07/03 07:14:18;;;;;;;23.23;16.05;;;16.80;91.90;;;;;;5022152;28;20045;-47
2021/07/03 07:16:44;;;;;;;29.17;17.02;;;16.90;91.70;;;;;;5028296;28;20041;-48
2021/07/03 07:19:10;;;;;;;24.27;16.30;;;17.00;91.50;;;;;;5021942;28;20041;-49
2021/07/03 07:21:36;;;;;;;28.58;17.20;;;17.00;91.50;;;;;;5028824;28;20052;-51
2021/07/03 07:24:03;;;;;;;21.50;16.55;;;17.10;91.70;;;;;;5026336;28;20038;-48
2021/07/03 07:26:30;;;;;;;21.30;16.25;;;17.30;91.60;;;;;;5030578;28;20049;-48
2021/07/03 07:28:55;;;;;;;23.95;16.17;;;17.40;91.80;;;;;;5035726;28;20566;-50
2021/07/03 07:31:21;;;;;;;23.33;16.08;;;17.60;91.10;;;;;;5031541;28;20410;-50
2021/07/03 07:33:48;;;;;;;24.48;16.15;;;17.70;91.20;;;;;;5028249;28;20048;-52
2021/07/03 07:36:14;;;;;;;23.83;16.35;;;17.80;91.50;;;;;;5046261;28;20040;-50
2021/07/03 07:38:40;;;;;;;23.70;16.55;;;17.90;91.20;;;;;;5023315;28;20041;-50
2021/07/03 07:41:06;;;;;;;24.02;17.42;;;18.10;91.00;;;;;;5027956;28;20049;-50
2021/07/03 07:43:32;;;;;;;24.17;16.58;;;18.20;90.60;;;;;;5032094;28;20072;-50
2021/07/03 07:45:59;;;;;;;24.02;17.85;;;18.30;90.30;;;;;;5030932;28;20528;-50
2021/07/03 07:48:27;;;;;;;28.30;17.13;;;18.40;90.60;;;;;;5015631;28;20041;-51
2021/07/03 07:50:56;;;;;;;26.80;19.15;;;18.60;90.70;;;;;;5014406;28;20050;-49
2021/07/03 07:53:22;;;;;;;25.13;17.75;;;18.80;90.50;;;;;;5023388;28;20038;-51
2021/07/03 07:55:53;;;;;;;25.92;18.80;;;18.90;90.30;;;;;;5027738;28;20072;-50
2021/07/03 07:58:19;;;;;;;26.23;17.73;;;19.00;90.10;;;;;;5018082;28;20525;-51
2021/07/03 08:00:45;;;;;;;32.00;20.38;;;19.10;88.90;;;;;;5005001;28;20045;-51
2021/07/03 08:03:12;;;;;;;31.85;20.65;;;19.20;88.90;;;;;;5012448;28;20132;-51
2021/07/03 08:05:37;;;;;;;32.53;20.95;;;19.10;88.20;;;;;;5021775;28;20069;-52
2021/07/03 08:08:06;;;;;;;29.83;19.90;;;19.10;87.70;;;;;;5024720;28;20462;-53
2021/07/03 08:10:37;;;;;;;28.33;20.65;;;19.10;88.80;;;;;;5021813;28;20111;-52
2021/07/03 08:13:03;;;;;;;33.90;21.35;;;19.20;89.40;;;;;;5032132;28;20153;-54
2021/07/03 08:15:31;;;;;;;33.50;19.70;;;19.30;89.10;;;;;;5033956;28;20060;-48
2021/07/03 08:18:01;;;;;;;31.52;20.70;;;19.40;88.60;;;;;;5029955;28;20108;-52
2021/07/03 08:20:27;;;;;;;28.15;19.67;;;19.40;87.30;;;;;;5031587;28;20494;-49
2021/07/03 08:22:55;;;;;;;28.83;19.52;;;19.50;87.90;;;;;;5040383;28;20056;-49
2021/07/03 08:25:24;;;;;;;32.63;20.02;;;19.50;88.10;;;;;;5014453;28;20102;-48
2021/07/03 08:27:51;;;;;;;31.70;19.80;;;19.60;87.80;;;;;;5028289;28;20049;-51
2021/07/03 08:30:19;;;;;;;33.72;20.40;;;19.70;86.70;;;;;;5008950;28;20044;-52
2021/07/03 08:32:45;;;;;;;30.88;18.63;;;19.80;86.40;;;;;;5047761;28;20505;-51
2021/07/03 08:35:14;;;;;;;30.35;19.48;;;19.80;84.80;;;;;;5034111;28;20041;-54
2021/07/03 08:37:40;;;;;;;31.90;20.15;;;19.90;85.60;;;;;;5032620;28;20037;-49
2021/07/03 08:40:07;;;;;;;30.15;21.65;;;19.90;86.00;;;;;;5026307;28;20394;-50
2021/07/03 08:42:33;;;;;;;29.58;19.77;;;20.00;84.80;;;;;;5029360;28;20464;-53
2021/07/03 08:44:59;;;;;;;29.38;19.27;;;20.10;84.20;;;;;;5021762;28;20125;-54
2021/07/03 08:47:26;;;;;;;37.25;20.08;;;20.10;84.40;;;;;;5027526;28;20099;-48
2021/07/03 08:49:56;;;;;;;34.42;23.17;;;20.30;85.00;;;;;;5044363;28;20072;-54
2021/07/03 08:52:23;;;;;;;33.42;23.83;;;20.50;83.20;;;;;;5017546;28;20045;-51
2021/07/03 08:55:03;;;;;;;31.88;21.00;;;20.60;80.40;;;;;;5021722;28;20429;-47
2021/07/03 08:57:31;;;;;;;35.97;22.27;;;20.60;80.80;;;;;;5001416;28;20041;-51
2021/07/03 08:59:58;;;;;;;35.38;22.48;;;20.60;82.80;;;;;;5034943;28;20059;-54
2021/07/03 09:02:35;;;;;;;34.30;21.30;;;20.60;82.20;;;;;;5034407;28;20509;-51
2021/07/03 09:05:01;;;;;;;35.35;22.10;;;20.60;82.80;;;;;;5028028;28;20041;-50
2021/07/03 09:07:35;;;;;;;34.30;21.80;;;20.60;82.40;;;;;;5038109;28;20041;-50
2021/07/03 09:10:03;;;;;;;34.42;22.42;;;20.70;81.30;;;;;;5031880;28;20041;-51
2021/07/03 09:12:36;;;;;;;32.30;21.33;;;20.70;80.20;;;;;;5010453;28;20104;-50
2021/07/03 09:15:16;;;;;;;29.30;20.85;;;20.80;80.00;;;;;;5023840;28;20034;-53
2021/07/03 09:17:47;;;;;;;29.95;19.67;;;20.90;81.00;;;;;;5036075;28;20067;-52
2021/07/03 09:20:13;;;;;;;26.55;18.35;;;21.00;80.70;;;;;;5027967;28;20509;-54
2021/07/03 09:22:38;;;;;;;24.95;16.90;;;21.10;77.10;;;;;;5028351;28;20562;-51
2021/07/03 09:25:20;;;;;;;24.10;16.23;;;21.10;77.90;;;;;;5030295;28;20034;-52
2021/07/03 09:27:47;;;;;;;26.13;17.08;;;21.10;75.70;;;;;;5028275;28;20047;-52
2021/07/03 09:30:16;;;;;;;26.65;16.85;;;21.10;76.10;;;;;;5027940;28;20414;-50
2021/07/03 09:33:08;;;;;;;24.48;17.58;;;21.20;75.20;;;;;;5016960;28;20133;-53
2021/07/03 09:35:35;;;;;;;;;;;21.30;75.90;;;;;;5024347;28;20047;-53
2021/07/03 09:38:07;;;;;;;24.25;17.13;;;21.40;75.90;;;;;;5036465;28;19916;-51
2021/07/03 09:40:37;;;;;;;27.67;17.85;;;21.40;75.50;;;;;;5018289;28;20407;-51
2021/07/03 09:43:11;;;;;;;24.10;17.00;;;21.60;76.50;;;;;;5036363;28;20088;-48
2021/07/03 09:45:49;;;;;;;25.63;18.45;;;21.60;75.00;;;;;;5030967;28;20053;-49
2021/07/03 09:48:16;;;;;;;28.08;16.15;;;21.80;74.90;;;;;;5017378;28;20054;-49
2021/07/03 09:50:43;;;;;;;24.35;16.65;;;21.80;75.00;;;;;;5044462;28;20037;-48
2021/07/03 09:53:09;;;;;;;25.98;17.20;;;21.90;75.30;;;;;;5032908;28;20471;-48
2021/07/03 09:55:37;;;;;;;23.63;16.65;;;21.80;75.40;;;;;;5034197;28;20051;-50
2021/07/03 09:58:03;;;;;;;25.65;17.35;;;21.70;75.10;;;;;;5033965;28;20037;-51
2021/07/03 10:00:29;;;;;;;21.55;15.50;;;21.50;73.40;;;;;;5038876;28;20049;-52
2021/07/03 10:02:57;;;;;;;21.60;14.50;;;21.50;75.10;;;;;;5039270;28;20049;-49
2021/07/03 10:05:23;;;;;;;22.38;15.65;;;21.50;74.30;;;;;;5033571;28;20048;-48
2021/07/03 10:08:06;;;;;;;23.00;14.63;;;21.60;71.40;;;;;;5039039;28;20049;-55
2021/07/03 10:10:34;;;;;;;20.98;13.38;;;21.50;73.30;;;;;;5031384;28;20037;-53
2021/07/03 10:13:06;;;;;;;22.85;15.63;;;21.60;74.60;;;;;;5043530;28;20524;-50
2021/07/03 10:15:35;;;;;;;21.00;13.77;;;21.80;73.30;;;;;;5030726;28;20490;-51
2021/07/03 10:18:31;;;;;;;22.42;14.02;;;22.00;73.00;;;;;;5045303;28;20045;-54
2021/07/03 10:21:13;;;;;;;20.75;13.00;;;22.20;68.70;;;;;;5020091;28;20056;-53
2021/07/03 10:23:42;;;;;;;21.27;14.07;;;22.20;69.40;;;;;;5035312;28;20045;-51
2021/07/03 10:26:09;;;;;;;21.20;14.18;;;22.30;71.20;;;;;;5008703;28;21371;-52
2021/07/03 10:28:38;;;;;;;21.02;15.27;;;22.30;71.10;;;;;;5013539;28;20053;-51
2021/07/03 10:31:10;;;;;;;23.42;14.25;;;22.30;70.30;;;;;;5036409;28;20425;-50
2021/07/03 10:33:45;;;;;;;21.92;13.27;;;22.30;70.00;;;;;;5012275;28;20046;-52
2021/07/03 10:36:22;;;;;;;18.75;12.93;;;22.40;69.90;;;;;;5030613;28;20037;-48
2021/07/03 10:38:48;;;;;;;22.00;14.43;;;22.50;69.90;;;;;;5022707;28;20413;-50
2021/07/03 10:41:23;;;;;;;20.23;14.90;;;22.60;67.70;;;;;;4989266;28;20052;-50
2021/07/03 10:44:07;;;;;;;22.92;14.60;;;22.60;67.60;;;;;;5037691;28;20044;-49
2021/07/03 10:46:43;;;;;;;20.50;12.93;;;22.70;66.80;;;;;;5041870;28;20033;-52
2021/07/03 10:49:29;;;;;;;20.00;13.27;;;22.70;65.80;;;;;;5030589;28;20064;-51
2021/07/03 10:51:55;;;;;;;19.92;14.05;;;22.60;66.40;;;;;;5019319;28;20097;-50
2021/07/03 10:54:28;;;;;;;20.73;12.40;;;22.60;66.30;;;;;;5015346;28;20065;-53
2021/07/03 10:57:01;;;;;;;20.33;14.38;;;22.70;66.60;;;;;;5025982;28;20128;-54
2021/07/03 10:59:28;;;;;;;19.13;12.82;;;22.70;65.20;;;;;;5024842;28;20045;-54
2021/07/03 11:02:04;;;;;;;19.05;14.25;;;22.70;65.50;;;;;;5022365;28;20099;-54
2021/07/03 11:04:30;;;;;;;20.42;12.27;;;22.60;67.50;;;;;;5028170;28;20483;-51
2021/07/03 11:06:55;;;;;;;18.95;11.98;;;22.70;68.50;;;;;;5030257;28;20037;-52
2021/07/03 11:09:24;;;;;;;17.08;12.05;;;22.70;68.50;;;;;;5034490;28;20561;-53
2021/07/03 11:11:50;;;;;;;19.27;12.90;;;22.60;69.50;;;;;;5034410;28;20045;-51
2021/07/03 11:14:22;;;;;;;20.02;13.05;;;22.60;69.80;;;;;;5043245;28;20045;-54
2021/07/03 11:16:59;;;;;;;19.65;12.40;;;22.40;68.40;;;;;;5031492;28;20490;-53
2021/07/03 11:19:29;;;;;;;19.13;13.18;;;22.50;63.10;;;;;;5033257;28;20068;-53
2021/07/03 11:22:09;;;;;;;15.60;11.43;;;22.50;65.80;;;;;;5032361;28;20029;-51
2021/07/03 11:24:55;;;;;;;16.75;11.35;;;22.40;66.60;;;;;;5048062;28;20050;-52
2021/07/03 11:27:24;;;;;;;22.30;14.07;;;22.50;67.70;;;;;;5043284;28;20029;-52
2021/07/03 11:29:50;;;;;;;18.75;13.02;;;22.70;66.30;;;;;;5034625;28;20077;-54
2021/07/03 11:32:16;;;;;;;20.27;13.90;;;22.80;66.70;;;;;;5023462;28;20064;-55
2021/07/03 11:34:51;;;;;;;21.65;13.50;;;23.00;67.40;;;;;;5023331;28;20042;-52
2021/07/03 11:37:28;;;;;;;18.35;13.48;;;23.10;65.10;;;;;;5031172;28;20095;-55
2021/07/03 11:39:55;;;;;;;18.20;12.32;;;23.20;64.40;;;;;;5037904;28;20060;-51
2021/07/03 11:42:29;;;;;;;18.33;13.00;;;23.20;65.10;;;;;;5016153;28;20041;-54
2021/07/03 11:44:55;;;;;;;18.45;13.30;;;23.40;66.70;;;;;;5033470;28;20746;-55
2021/07/03 11:47:32;;;;;;;18.45;11.73;;;23.50;65.50;;;;;;5034100;28;20045;-53
2021/07/03 11:49:59;;;;;;;19.27;12.40;;;23.60;65.90;;;;;;5024489;28;20057;-53
2021/07/03 11:52:24;;;;;;;17.17;11.30;;;23.70;66.00;;;;;;5032676;28;20034;-52
2021/07/03 11:54:50;;;;;;;20.98;13.63;;;23.80;65.80;;;;;;5019840;28;20058;-52
2021/07/03 11:57:16;;;;;;;15.57;12.40;;;23.90;63.60;;;;;;5041050;28;20045;-48
2021/07/03 11:59:42;;;;;;;17.98;12.13;;;23.90;63.80;;;;;;5015600;28;20033;-49
2021/07/03 12:02:10;;;;;;;22.58;13.75;;;23.90;63.30;;;;;;5023483;28;20040;-48
2021/07/03 12:04:37;;;;;;;16.88;11.73;;;23.80;63.80;;;;;;4995714;28;20045;-49
2021/07/03 12:07:03;;;;;;;17.08;12.82;;;23.80;63.60;;;;;;5036922;28;20052;-53
2021/07/03 12:09:35;;;;;;;17.45;13.10;;;23.80;64.90;;;;;;5028267;28;20041;-48
2021/07/03 12:12:01;;;;;;;16.65;11.90;;;23.70;65.90;;;;;;5020080;28;20040;-49
2021/07/03 12:14:28;;;;;;;17.77;11.90;;;23.50;67.10;;;;;;5033495;28;20041;-48
2021/07/03 12:16:58;;;;;;;17.08;12.00;;;23.40;65.30;;;;;;5011829;28;20068;-49
2021/07/03 12:19:24;;;;;;;16.40;11.43;;;23.20;64.50;;;;;;5030617;28;20034;-51
2021/07/03 12:21:50;;;;;;;19.63;12.50;;;23.10;65.20;;;;;;5029164;28;20037;-54
2021/07/03 12:24:16;;;;;;;17.48;12.85;;;23.20;66.60;;;;;;5012083;28;20509;-53
2021/07/03 12:26:48;;;;;;;17.35;12.68;;;23.20;65.90;;;;;;5024498;28;20046;-53
2021/07/03 12:29:23;;;;;;;17.05;12.45;;;23.30;65.10;;;;;;5022333;28;20136;-48
2021/07/03 12:31:50;;;;;;;18.08;12.77;;;23.30;65.70;;;;;;5045749;28;20129;-52